createdAt,value
2022-11-10T00:03:15.880Z,100.00
2022-11-10T00:08:16.022Z,100.00
2022-11-10T00:18:16.250Z,100.00
2022-11-10T00:23:15.825Z,100.00
2022-11-10T00:28:15.966Z,100.00
2022-11-10T00:33:16.103Z,100.00
2022-11-10T00:38:15.878Z,100.00
2022-11-10T00:43:16.042Z,100.00
2022-11-10T00:53:16.045Z,100.00
2022-11-10T00:58:16.177Z,100.00
2022-11-10T01:03:15.967Z,100.00
2022-11-10T01:08:16.226Z,100.00
2022-11-10T01:13:15.928Z,100.00
2022-11-10T01:18:16.122Z,100.00
2022-11-10T01:23:15.964Z,100.00
2022-11-10T01:28:16.086Z,100.00
2022-11-10T01:38:16.171Z,100.00
2022-11-10T01:43:15.868Z,100.00
2022-11-10T01:48:15.909Z,100.00
2022-11-10T01:53:15.915Z,100.00
2022-11-10T01:58:15.942Z,100.00
2022-11-10T02:03:16.036Z,100.00
2022-11-10T02:08:16.048Z,100.00
2022-11-10T02:13:16.077Z,100.00
2022-11-10T02:18:15.911Z,100.00
2022-11-10T02:23:15.928Z,100.00
2022-11-10T02:28:16.222Z,100.00
2022-11-10T02:33:16.052Z,100.00
2022-11-10T02:38:16.163Z,100.00
2022-11-10T02:43:15.983Z,100.00
2022-11-10T02:48:15.926Z,100.00
2022-11-10T02:53:15.992Z,100.00
2022-11-10T02:58:16.132Z,100.00
2022-11-10T03:03:15.934Z,100.00
2022-11-10T03:08:16.161Z,100.00
2022-11-10T03:13:15.933Z,100.00
2022-11-10T03:18:16.071Z,100.00
2022-11-10T03:28:16.041Z,100.00
2022-11-10T03:33:16.180Z,100.00
2022-11-10T03:38:15.954Z,100.00
2022-11-10T03:43:15.951Z,100.00
2022-11-10T03:48:15.931Z,100.00
2022-11-10T03:53:16.114Z,100.00
2022-11-10T03:58:16.265Z,100.00
2022-11-10T04:03:16.051Z,100.00
2022-11-10T04:08:16.063Z,100.00
2022-11-10T04:18:16.446Z,100.00
2022-11-10T04:23:15.961Z,100.00
2022-11-10T04:28:16.169Z,100.00
2022-11-10T04:38:15.987Z,100.00
2022-11-10T04:43:15.944Z,100.00
2022-11-10T04:53:15.987Z,100.00
2022-11-10T04:58:15.954Z,100.00
2022-11-10T05:03:15.984Z,100.00
2022-11-10T05:13:16.429Z,100.00
2022-11-10T05:18:15.953Z,100.00
2022-11-10T05:23:16.164Z,100.00
2022-11-10T05:28:16.234Z,100.00
2022-11-10T05:33:16.138Z,100.00
2022-11-10T05:38:16.271Z,100.00
2022-11-10T05:43:16.099Z,100.00
2022-11-10T05:48:16.224Z,100.00
2022-11-10T05:53:16.025Z,100.00
2022-11-10T05:58:15.998Z,100.00
2022-11-10T06:03:16.078Z,100.00
2022-11-10T06:08:16.165Z,100.00
2022-11-10T06:13:15.982Z,100.00
2022-11-10T06:23:16.233Z,100.00
2022-11-10T06:28:16.069Z,100.00
2022-11-10T06:33:16.260Z,99.64
2022-11-10T06:38:15.990Z,98.64
2022-11-10T06:43:16.205Z,97.60
2022-11-10T06:48:16.037Z,97.06
2022-11-10T06:53:16.045Z,95.99
2022-11-10T06:58:16.336Z,95.63
2022-11-10T07:03:16.176Z,94.98
2022-11-10T07:08:16.297Z,94.86
2022-11-10T07:13:16.031Z,94.20
2022-11-10T07:18:16.316Z,93.75
2022-11-10T07:28:16.195Z,94.23
2022-11-10T07:33:16.065Z,94.23
2022-11-10T07:38:16.221Z,93.36
2022-11-10T07:43:16.352Z,92.93
2022-11-10T07:48:16.023Z,93.02
2022-11-10T07:53:16.331Z,92.32
2022-11-10T07:58:16.168Z,92.32
2022-11-10T08:03:16.304Z,92.45
2022-11-10T08:08:16.441Z,92.34
2022-11-10T08:13:16.280Z,92.34
2022-11-10T08:18:16.075Z,92.19
2022-11-10T08:23:16.215Z,91.75
2022-11-10T08:28:16.372Z,91.34
2022-11-10T08:33:16.174Z,91.32
2022-11-10T08:38:16.347Z,91.32
2022-11-10T08:43:16.082Z,89.05
2022-11-10T08:48:16.303Z,89.05
2022-11-10T08:53:16.128Z,87.97
2022-11-10T08:58:16.087Z,87.75
2022-11-10T09:03:16.085Z,86.32
2022-11-10T09:08:16.261Z,84.17
2022-11-10T09:13:16.050Z,83.80
2022-11-10T09:18:16.206Z,83.25
2022-11-10T09:23:16.406Z,82.55
2022-11-10T09:28:16.153Z,82.56
2022-11-10T09:33:16.340Z,82.39
2022-11-10T09:38:16.121Z,82.39
2022-11-10T09:43:16.128Z,78.26
2022-11-10T09:48:16.299Z,78.57
2022-11-10T09:53:16.319Z,77.37
2022-11-10T09:58:16.424Z,76.34
2022-11-10T10:03:16.070Z,74.58
2022-11-10T10:08:16.208Z,74.60
2022-11-10T10:13:16.507Z,75.67
2022-11-10T10:18:16.158Z,76.55
2022-11-10T10:23:16.086Z,76.46
2022-11-10T10:28:16.262Z,76.88
2022-11-10T10:33:16.097Z,77.54
2022-11-10T10:38:16.302Z,77.54
2022-11-10T10:43:16.445Z,77.99
2022-11-10T10:48:16.225Z,78.82
2022-11-10T10:53:16.387Z,79.38
2022-11-10T10:58:16.145Z,79.38
2022-11-10T11:03:16.220Z,80.22
2022-11-10T11:08:16.214Z,80.19
2022-11-10T11:13:16.325Z,80.19
2022-11-10T11:18:16.136Z,79.38
2022-11-10T11:23:16.330Z,79.38
2022-11-10T11:28:16.124Z,80.36
2022-11-10T11:33:16.365Z,81.20
2022-11-10T11:38:16.444Z,82.09
2022-11-10T11:43:16.208Z,82.67
2022-11-10T11:48:16.399Z,82.14
2022-11-10T11:53:16.181Z,81.96
2022-11-10T11:58:16.371Z,82.37
2022-11-10T12:03:16.148Z,82.37
2022-11-10T12:08:16.346Z,82.69
2022-11-10T12:13:16.521Z,82.92
2022-11-10T12:18:16.152Z,83.97
2022-11-10T12:23:16.453Z,85.26
2022-11-10T12:33:16.683Z,87.60
2022-11-10T12:38:16.479Z,86.88
2022-11-10T12:43:16.197Z,85.99
2022-11-10T12:48:16.190Z,85.40
2022-11-10T12:53:16.184Z,85.49
2022-11-10T12:58:16.444Z,86.01
2022-11-10T13:03:16.335Z,85.21
2022-11-10T13:08:16.469Z,85.65
2022-11-10T13:13:16.161Z,85.60
2022-11-10T13:18:16.440Z,85.32
2022-11-10T13:23:16.226Z,84.76
2022-11-10T13:28:16.193Z,84.76
2022-11-10T13:33:16.213Z,84.65
2022-11-10T13:38:16.172Z,84.17
2022-11-10T13:43:16.218Z,84.17
2022-11-10T13:48:16.237Z,84.06
2022-11-10T13:53:16.290Z,84.21
2022-11-10T13:58:16.316Z,84.21
2022-11-10T14:03:16.501Z,83.78
2022-11-10T14:08:16.191Z,83.79
2022-11-10T14:13:16.227Z,84.03
2022-11-10T14:18:16.221Z,83.85
2022-11-10T14:23:16.349Z,83.85
2022-11-10T14:33:16.319Z,84.32
2022-11-10T14:38:20.351Z,84.45
2022-11-10T14:43:16.299Z,84.79
2022-11-10T14:48:16.353Z,85.22
2022-11-10T14:53:16.255Z,85.47
2022-11-10T15:03:16.302Z,85.45
2022-11-10T15:08:16.267Z,85.15
2022-11-10T15:13:16.557Z,84.98
2022-11-10T15:18:16.409Z,84.17
2022-11-10T15:23:16.528Z,84.23
2022-11-10T15:28:16.228Z,84.17
2022-11-10T15:33:16.500Z,84.37
2022-11-10T15:38:20.731Z,84.37
2022-11-10T15:53:16.377Z,84.85
2022-11-10T15:58:16.251Z,85.01
2022-11-10T16:03:16.408Z,85.01
2022-11-10T16:08:16.549Z,85.58
2022-11-10T16:13:16.378Z,86.42
2022-11-10T16:18:16.911Z,86.42
2022-11-10T16:23:16.273Z,87.00
2022-11-10T16:33:16.292Z,87.29
2022-11-10T16:48:16.442Z,87.51
2022-11-10T16:58:16.657Z,88.18
2022-11-10T17:03:16.543Z,88.10
2022-11-10T17:08:16.525Z,88.44
2022-11-10T17:13:16.456Z,88.49
2022-11-10T17:18:16.350Z,88.14
2022-11-10T17:23:16.776Z,88.40
2022-11-10T17:28:16.616Z,88.30
2022-11-10T17:33:16.402Z,87.92
2022-11-10T17:38:16.354Z,88.22
2022-11-10T17:43:16.658Z,88.25
2022-11-10T17:48:16.531Z,87.92
2022-11-10T17:53:16.451Z,87.84
2022-11-10T17:58:16.657Z,87.53
2022-11-10T18:03:16.574Z,87.53
2022-11-10T18:08:16.639Z,87.54
2022-11-10T18:13:16.704Z,87.76
2022-11-10T18:18:16.448Z,87.76
2022-11-10T18:28:16.870Z,87.52
2022-11-10T18:33:16.778Z,87.34
2022-11-10T18:43:16.783Z,86.36
2022-11-10T18:48:16.673Z,86.13
2022-11-10T18:53:16.913Z,86.13
2022-11-10T18:58:17.399Z,86.18
2022-11-10T19:03:16.733Z,85.83
2022-11-10T19:08:16.866Z,85.83
2022-11-10T19:13:16.371Z,85.78
2022-11-10T19:18:16.808Z,85.78
2022-11-10T19:23:16.573Z,85.12
2022-11-10T19:28:16.567Z,84.97
2022-11-10T19:33:18.383Z,84.93
2022-11-10T19:38:16.654Z,84.57
2022-11-10T19:43:16.852Z,84.65
2022-11-10T19:48:16.538Z,85.23
2022-11-10T19:53:16.600Z,85.45
2022-11-10T19:58:16.629Z,85.58
2022-11-10T20:08:16.946Z,85.45
2022-11-10T20:13:16.728Z,85.45
2022-11-10T20:18:16.425Z,85.42
2022-11-10T20:23:16.785Z,86.49
2022-11-10T20:28:16.638Z,86.15
2022-11-10T20:33:16.736Z,86.48
2022-11-10T20:38:16.908Z,87.17
2022-11-10T20:43:16.606Z,87.17
2022-11-10T20:48:16.887Z,87.94
2022-11-10T20:53:16.443Z,88.15
2022-11-10T20:58:16.717Z,88.02
2022-11-10T21:03:16.390Z,88.18
2022-11-10T21:08:16.441Z,88.21
2022-11-10T21:13:16.389Z,87.80
2022-11-10T21:18:16.417Z,87.80
2022-11-10T21:23:16.428Z,87.57
2022-11-10T21:28:16.419Z,87.52
2022-11-10T21:33:16.394Z,88.29
2022-11-10T21:38:16.512Z,88.45
2022-11-10T21:43:16.423Z,88.45
2022-11-10T21:48:16.470Z,87.76
2022-11-10T21:53:16.691Z,87.11
2022-11-10T22:03:16.552Z,87.41
2022-11-10T22:08:21.646Z,87.96
2022-11-10T22:13:16.551Z,89.27
2022-11-10T22:18:16.437Z,89.80
2022-11-10T22:23:16.763Z,91.62
2022-11-10T22:28:16.449Z,90.78
2022-11-10T22:33:16.463Z,90.24
2022-11-10T22:38:16.638Z,89.54
2022-11-10T22:43:16.770Z,89.06
2022-11-10T22:48:16.570Z,89.06
2022-11-10T22:53:16.673Z,89.44
2022-11-10T22:58:16.541Z,89.44
2022-11-10T23:03:16.693Z,88.76
2022-11-10T23:08:16.738Z,88.83
2022-11-10T23:13:16.466Z,88.60
2022-11-10T23:18:16.568Z,88.83
2022-11-10T23:23:16.664Z,88.59
2022-11-10T23:28:16.778Z,88.58
2022-11-10T23:33:16.615Z,88.68
2022-11-10T23:38:16.441Z,88.49
2022-11-10T23:43:16.561Z,88.56
2022-11-10T23:48:16.728Z,88.87
2022-11-10T23:53:16.448Z,89.82
2022-11-10T23:58:16.689Z,90.19
